Time;durP1;ratioP1;P1;durP2;ratioP2;P2;SDS_P1;SDS_P2;PMS_P1;PMS_P2;Temp;Humidity;BMP_temperature;BMP_pressure;BME280_temperature;BME280_humidity;BME280_pressure;Samples;Min_cycle;Max_cycle;Signal;HPM_P1;HPM_P2
2022/03/08 00:02:19;;;;;;;119.50;70.50;;;;;;;-2.52;96.98;99505.63;105154;1270;67345;-73
2022/03/08 00:04:46;;;;;;;126.50;70.70;;;;;;;-2.55;96.80;99503.39;105339;1270;73164;-73
2022/03/08 00:07:14;;;;;;;119.90;71.80;;;;;;;-2.62;96.53;99498.55;105352;1270;61298;-74
2022/03/08 00:09:41;;;;;;;122.00;75.10;;;;;;;-2.71;96.44;99494.60;103958;1270;1003582;-74
2022/03/08 00:12:08;;;;;;;123.40;73.20;;;;;;;-2.79;96.37;99494.99;105380;1270;75253;-74
2022/03/08 00:14:34;;;;;;;127.20;81.30;;;;;;;-2.87;96.37;99496.08;105256;1271;70254;-76
2022/03/08 00:17:02;;;;;;;129.40;78.80;;;;;;;-2.94;96.71;99494.90;105475;1269;72402;-74
2022/03/08 00:19:29;;;;;;;126.70;82.20;;;;;;;-3.00;97.30;99502.20;105602;1270;61128;-72
2022/03/08 00:21:55;;;;;;;141.70;87.80;;;;;;;-3.02;98.27;99501.88;105734;1270;61272;-73
2022/03/08 00:24:22;;;;;;;131.70;82.30;;;;;;;-3.01;99.35;99503.79;105561;1270;73539;-75
2022/03/08 00:26:49;;;;;;;118.80;75.50;;;;;;;-2.97;99.85;99506.04;106258;1270;61376;-73
2022/03/08 00:29:15;;;;;;;112.90;73.50;;;;;;;-2.91;100.00;99499.92;107220;1269;59769;-74
2022/03/08 00:31:42;;;;;;;103.20;68.80;;;;;;;-2.88;100.00;99499.20;108351;1270;59824;-73
2022/03/08 00:34:08;;;;;;;102.90;66.30;;;;;;;-2.84;100.00;99500.77;108481;1270;59261;-72
2022/03/08 00:36:36;;;;;;;109.70;63.90;;;;;;;-2.78;100.00;99505.24;108298;1270;61280;-73
2022/03/08 00:39:03;;;;;;;105.30;64.50;;;;;;;-2.73;100.00;99506.62;108259;1269;68344;-73
2022/03/08 00:41:30;;;;;;;108.90;67.50;;;;;;;-2.73;100.00;99506.09;106829;1270;73368;-71
2022/03/08 00:43:57;;;;;;;107.10;63.00;;;;;;;-2.76;100.00;99507.33;105274;1270;61256;-73
2022/03/08 00:46:23;;;;;;;99.10;59.10;;;;;;;-2.78;100.00;99506.30;105298;1270;61924;-74
2022/03/08 00:48:50;;;;;;;112.80;68.80;;;;;;;-2.82;100.00;99508.58;105295;1270;73637;-74
2022/03/08 00:51:17;;;;;;;107.70;69.70;;;;;;;-2.89;100.00;99512.61;105288;1270;69654;-74
2022/03/08 00:53:43;;;;;;;102.10;65.60;;;;;;;-2.96;100.00;99510.55;104979;1270;535095;-74
2022/03/08 00:56:10;;;;;;;104.70;65.80;;;;;;;-3.00;100.00;99514.91;105012;1270;61415;-73
2022/03/08 00:58:37;;;;;;;93.80;59.00;;;;;;;-3.03;100.00;99514.56;105233;1270;61214;-73
2022/03/08 01:01:04;;;;;;;107.00;66.70;;;;;;;-3.04;100.00;99512.14;105261;1270;76293;-74
2022/03/08 01:03:30;;;;;;;108.60;69.40;;;;;;;-3.08;99.86;99511.11;105267;1270;61295;-74
2022/03/08 01:05:56;;;;;;;112.30;72.90;;;;;;;-3.14;99.95;99511.31;104998;1271;61253;-74
2022/03/08 01:08:23;;;;;;;108.40;69.80;;;;;;;-3.18;100.00;99511.15;105236;1270;61410;-72
2022/03/08 01:10:49;;;;;;;115.10;72.60;;;;;;;-3.23;99.99;99509.25;105262;1270;61352;-73
2022/03/08 01:13:16;;;;;;;118.40;74.40;;;;;;;-3.28;99.93;99509.61;105273;1270;61273;-73
2022/03/08 01:15:43;;;;;;;123.50;78.10;;;;;;;-3.32;100.00;99507.72;105231;1270;69322;-73
2022/03/08 01:18:09;;;;;;;111.10;71.60;;;;;;;-3.33;100.00;99509.45;105233;1270;61256;-73
2022/03/08 01:20:36;;;;;;;111.90;69.40;;;;;;;-3.33;100.00;99506.50;105244;1270;61310;-74
2022/03/08 01:23:02;;;;;;;104.40;68.00;;;;;;;-3.32;100.00;99509.63;105242;1270;61286;-74
2022/03/08 01:25:29;;;;;;;105.00;67.20;;;;;;;-3.34;100.00;99509.29;105252;1270;75265;-73
2022/03/08 01:27:56;;;;;;;103.40;67.70;;;;;;;-3.32;100.00;99508.76;105248;1270;61397;-72
2022/03/08 01:30:25;;;;;;;105.10;66.80;;;;;;;-3.30;100.00;99511.20;105239;1270;72246;-74
2022/03/08 01:32:51;;;;;;;109.00;68.90;;;;;;;-3.32;100.00;99512.05;105271;1270;61397;-73
2022/03/08 01:35:18;;;;;;;104.70;67.60;;;;;;;-3.33;100.00;99513.80;104997;1270;61298;-74
2022/03/08 01:37:45;;;;;;;105.90;68.40;;;;;;;-3.35;100.00;99516.23;105237;1270;75510;-74
2022/03/08 01:40:15;;;;;;;109.80;67.80;;;;;;;-3.38;100.00;99517.98;105088;1270;68320;-73
2022/03/08 01:42:46;;;;;;;115.00;72.90;;;;;;;-3.44;100.00;99518.86;105361;1270;73336;-75
2022/03/08 01:45:14;;;;;;;109.40;71.80;;;;;;;-3.49;100.00;99516.95;105217;1270;61296;-73
2022/03/08 01:47:41;;;;;;;102.60;64.00;;;;;;;-3.57;100.00;99515.58;105487;1269;61142;-72
2022/03/08 01:50:09;;;;;;;98.00;61.20;;;;;;;-3.65;100.00;99518.89;105205;1269;75239;-73
2022/03/08 01:52:38;;;;;;;94.50;60.50;;;;;;;-3.70;100.00;99518.55;105302;1269;70285;-73
2022/03/08 01:55:06;;;;;;;103.10;63.70;;;;;;;-3.69;100.00;99520.46;105269;1270;74345;-74
2022/03/08 01:57:33;;;;;;;98.60;64.90;;;;;;;-3.67;100.00;99523.23;105270;1270;61253;-72
2022/03/08 02:00:00;;;;;;;102.70;65.00;;;;;;;-3.70;100.00;99527.23;105226;1270;61914;-72
2022/03/08 02:02:27;;;;;;;100.70;63.40;;;;;;;-3.74;100.00;99525.33;105237;1270;75581;-71
2022/03/08 02:04:53;;;;;;;107.20;64.40;;;;;;;-3.80;100.00;99521.16;105224;1270;61286;-72
2022/03/08 02:07:19;;;;;;;105.00;64.80;;;;;;;-3.87;100.00;99523.77;105245;1270;61382;-73
2022/03/08 02:09:46;;;;;;;116.60;69.40;;;;;;;-3.91;100.00;99522.55;105210;1270;61288;-72
2022/03/08 02:12:13;;;;;;;106.00;66.80;;;;;;;-3.94;100.00;99520.30;105208;1270;61298;-72
2022/03/08 02:14:41;;;;;;;100.30;62.90;;;;;;;-3.97;100.00;99514.75;105206;1270;61156;-72
2022/03/08 02:17:07;;;;;;;101.80;62.30;;;;;;;-3.98;100.00;99513.19;105259;1270;69553;-73
2022/03/08 02:19:34;;;;;;;97.40;61.70;;;;;;;-3.93;100.00;99510.05;105257;1270;61306;-73
2022/03/08 02:22:01;;;;;;;96.70;60.60;;;;;;;-3.86;100.00;99505.55;105243;1270;61316;-72
2022/03/08 02:24:27;;;;;;;96.70;58.30;;;;;;;-3.79;100.00;99504.84;105241;1270;61148;-73
2022/03/08 02:26:54;;;;;;;100.90;60.20;;;;;;;-3.72;100.00;99506.23;105223;1270;61212;-73
2022/03/08 02:29:20;;;;;;;97.20;59.60;;;;;;;-3.66;100.00;99507.61;105283;1270;61352;-73
2022/03/08 02:31:47;;;;;;;98.20;61.40;;;;;;;-3.63;100.00;99508.13;105163;1270;61165;-72
2022/03/08 02:34:15;;;;;;;103.10;65.90;;;;;;;-3.61;100.00;99514.02;105245;1270;61413;-73
2022/03/08 02:36:59;;;;;;;107.10;65.90;;;;;;;-3.60;100.00;99509.86;104511;1270;1002745;-73
2022/03/08 02:39:26;;;;;;;95.40;61.10;;;;;;;-3.60;100.00;99510.89;105238;1270;74491;-73
2022/03/08 02:41:52;;;;;;;98.10;58.40;;;;;;;-3.62;100.00;99508.48;105177;1270;61241;-73
2022/03/08 02:44:19;;;;;;;95.40;57.60;;;;;;;-3.66;100.00;99513.00;105012;1270;73188;-74
2022/03/08 02:46:46;;;;;;;96.80;59.40;;;;;;;-3.69;100.00;99506.91;105242;1269;61571;-74
2022/03/08 02:49:12;;;;;;;98.80;58.80;;;;;;;-3.72;100.00;99506.75;105262;1270;61266;-74
2022/03/08 02:51:39;;;;;;;101.80;59.90;;;;;;;-3.76;100.00;99503.45;104998;1270;61370;-74
2022/03/08 02:54:05;;;;;;;95.30;61.00;;;;;;;-3.81;100.00;99500.50;105218;1270;61296;-73
2022/03/08 02:56:32;;;;;;;96.10;59.80;;;;;;;-3.86;100.00;99508.15;105169;1270;61317;-74
2022/03/08 02:58:58;;;;;;;108.10;63.80;;;;;;;-3.87;100.00;99507.10;105225;1270;61261;-73
2022/03/08 03:01:25;;;;;;;105.90;65.60;;;;;;;-3.90;100.00;99510.23;105209;1270;61173;-75
2022/03/08 03:03:52;;;;;;;94.80;60.60;;;;;;;-3.92;100.00;99510.40;104998;1270;76392;-73
2022/03/08 03:06:19;;;;;;;97.00;56.00;;;;;;;-3.91;100.00;99509.71;105209;1270;61134;-73
2022/03/08 03:08:45;;;;;;;89.50;53.40;;;;;;;-3.87;100.00;99509.54;105178;1270;61336;-73
2022/03/08 03:11:12;;;;;;;95.10;55.80;;;;;;;-3.88;100.00;99515.96;105248;1270;61169;-73
2022/03/08 03:13:38;;;;;;;89.80;56.30;;;;;;;-3.86;100.00;99517.00;105252;1270;61164;-73
2022/03/08 03:16:04;;;;;;;93.80;57.30;;;;;;;-3.83;100.00;99518.73;105249;1270;61279;-73
2022/03/08 03:18:31;;;;;;;90.70;57.10;;;;;;;-3.87;100.00;99522.90;105274;1270;61378;-73
2022/03/08 03:20:58;;;;;;;103.00;60.50;;;;;;;-3.92;100.00;99528.28;105246;1270;73435;-71
2022/03/08 03:23:24;;;;;;;103.20;64.60;;;;;;;-3.95;100.00;99523.42;105226;1270;61387;-73
2022/03/08 03:25:50;;;;;;;102.90;66.40;;;;;;;-3.97;100.00;99530.89;105174;1270;61430;-74
2022/03/08 03:28:17;;;;;;;103.70;62.90;;;;;;;-3.98;100.00;99529.16;105209;1270;61286;-73
2022/03/08 03:30:43;;;;;;;96.20;60.30;;;;;;;-3.99;100.00;99527.59;105220;1270;61283;-74
2022/03/08 03:33:10;;;;;;;95.00;58.20;;;;;;;-4.02;100.00;99536.28;104986;1270;61363;-74
2022/03/08 03:35:36;;;;;;;92.70;59.70;;;;;;;-4.02;100.00;99533.32;105226;1270;61356;-74
2022/03/08 03:38:03;;;;;;;92.60;59.60;;;;;;;-3.99;100.00;99537.14;105215;1270;61246;-73
2022/03/08 03:40:29;;;;;;;99.20;63.70;;;;;;;-3.96;100.00;99536.27;105232;1270;61243;-74
2022/03/08 03:42:55;;;;;;;101.40;61.40;;;;;;;-3.94;100.00;99533.84;105233;1270;61421;-73
2022/03/08 03:45:22;;;;;;;96.20;62.40;;;;;;;-3.97;100.00;99536.27;105215;1269;61402;-73
2022/03/08 03:47:49;;;;;;;101.50;64.80;;;;;;;-3.98;100.00;99534.02;105278;1270;61308;-72
2022/03/08 03:50:15;;;;;;;103.10;68.10;;;;;;;-3.92;100.00;99528.11;106636;1270;61232;-73
2022/03/08 03:52:41;;;;;;;103.80;65.50;;;;;;;-3.85;100.00;99530.89;106760;1270;61276;-74
2022/03/08 03:55:08;;;;;;;84.70;55.30;;;;;;;-3.78;100.00;99530.37;105896;1270;61279;-73
2022/03/08 03:57:35;;;;;;;88.40;54.70;;;;;;;-3.64;100.00;99529.48;105005;1270;61359;-73
2022/03/08 04:00:05;;;;;;;79.80;53.30;;;;;;;-3.50;100.00;99525.13;105181;1270;61298;-72
2022/03/08 04:02:31;;;;;;;;;;;;;;;-3.37;100.00;99525.63;105192;1270;61255;-74
2022/03/08 04:04:58;;;;;;;91.20;59.50;;;;;;;-3.31;100.00;99524.21;105212;1270;61308;-72
2022/03/08 04:07:24;;;;;;;90.40;56.50;;;;;;;-3.21;100.00;99524.19;105265;1270;70668;-73
2022/03/08 04:09:51;;;;;;;106.50;66.90;;;;;;;-3.10;100.00;99527.29;105042;1273;61374;-72
2022/03/08 04:12:17;;;;;;;87.00;56.60;;;;;;;-3.06;100.00;99530.56;104485;1270;1004028;-72
2022/03/08 04:14:44;;;;;;;79.40;50.70;;;;;;;-3.00;100.00;99532.80;105260;1270;61273;-72
2022/03/08 04:17:10;;;;;;;71.10;47.10;;;;;;;-2.89;100.00;99532.42;105199;1270;61351;-72
2022/03/08 04:19:37;;;;;;;76.80;52.10;;;;;;;-2.79;100.00;99536.38;105047;1270;61398;-71
2022/03/08 04:22:03;;;;;;;78.80;54.10;;;;;;;-2.74;100.00;99535.48;105234;1270;61391;-72
2022/03/08 04:24:30;;;;;;;94.50;61.30;;;;;;;-2.70;100.00;99542.41;105031;1271;61451;-73
2022/03/08 04:26:56;;;;;;;94.90;64.70;;;;;;;-2.68;100.00;99548.50;105262;1270;61359;-73
2022/03/08 04:29:23;;;;;;;93.20;61.00;;;;;;;-2.68;100.00;99557.73;105206;1270;61307;-73
2022/03/08 04:31:49;;;;;;;101.00;67.40;;;;;;;-2.70;100.00;99560.86;105235;1270;61270;-73
2022/03/08 04:34:16;;;;;;;100.90;65.80;;;;;;;-2.70;100.00;99561.56;105223;1270;61379;-73
2022/03/08 04:36:42;;;;;;;96.60;63.50;;;;;;;-2.71;100.00;99563.48;105253;1270;61353;-72
2022/03/08 04:39:09;;;;;;;80.50;55.60;;;;;;;-2.71;100.00;99560.00;105247;1270;61253;-71
2022/03/08 04:41:36;;;;;;;75.30;50.10;;;;;;;-2.70;100.00;99558.25;105252;1270;76403;-73
2022/03/08 04:44:03;;;;;;;80.30;49.50;;;;;;;-2.67;100.00;99556.67;105234;1270;69294;-72
2022/03/08 04:46:29;;;;;;;79.30;53.50;;;;;;;-2.62;100.00;99557.70;105227;1270;74610;-72
2022/03/08 04:48:56;;;;;;;83.10;52.60;;;;;;;-2.59;100.00;99560.11;105228;1270;61185;-72
2022/03/08 04:51:22;;;;;;;90.10;52.30;;;;;;;-2.57;100.00;99558.71;105203;1270;61276;-72
2022/03/08 04:53:49;;;;;;;88.10;54.10;;;;;;;-2.56;100.00;99562.53;105259;1270;61720;-72
2022/03/08 04:56:16;;;;;;;91.70;58.80;;;;;;;-2.55;100.00;99563.77;105232;1270;61377;-73
2022/03/08 04:58:42;;;;;;;90.60;59.70;;;;;;;-2.54;100.00;99563.58;104960;1270;71590;-72
2022/03/08 05:01:09;;;;;;;93.10;58.10;;;;;;;-2.52;100.00;99561.30;105210;1270;61378;-74
2022/03/08 05:03:35;;;;;;;96.00;60.30;;;;;;;-2.49;100.00;99568.76;105226;1270;61305;-73
2022/03/08 05:06:05;;;;;;;81.70;52.60;;;;;;;-2.48;100.00;99569.27;105230;1270;61372;-74
2022/03/08 05:08:31;;;;;;;79.90;52.70;;;;;;;-2.46;100.00;99569.27;105423;1270;69846;-73
2022/03/08 05:10:58;;;;;;;82.10;53.20;;;;;;;-2.41;100.00;99569.07;105009;1270;61323;-73
2022/03/08 05:13:25;;;;;;;83.70;53.90;;;;;;;-2.37;100.00;99571.84;105284;1270;61370;-72
2022/03/08 05:15:52;;;;;;;84.40;56.20;;;;;;;-2.34;100.00;99574.94;105048;1270;62030;-73
2022/03/08 05:18:19;;;;;;;87.30;55.80;;;;;;;-2.33;100.00;99578.42;105245;1270;75299;-72
2022/03/08 05:20:45;;;;;;;88.50;57.80;;;;;;;-2.31;100.00;99583.98;105297;1270;61250;-73
2022/03/08 05:23:12;;;;;;;97.10;59.40;;;;;;;-2.31;100.00;99584.33;104468;1270;1003061;-72
2022/03/08 05:25:39;;;;;;;97.60;61.80;;;;;;;-2.30;100.00;99585.37;105230;1270;61181;-72
2022/03/08 05:28:06;;;;;;;81.90;53.30;;;;;;;-2.27;100.00;99586.58;104991;1270;61211;-72
2022/03/08 05:30:32;;;;;;;75.80;47.50;;;;;;;-2.25;100.00;99587.78;105217;1270;61256;-72
2022/03/08 05:32:59;;;;;;;75.80;48.60;;;;;;;-2.21;100.00;99591.58;105255;1270;70405;-73
2022/03/08 05:35:26;;;;;;;77.40;53.20;;;;;;;-2.17;100.00;99593.65;105271;1270;61380;-73
2022/03/08 05:37:53;;;;;;;84.50;53.30;;;;;;;-2.11;100.00;99591.88;105231;1270;61385;-75
2022/03/08 05:40:19;;;;;;;81.70;54.40;;;;;;;-2.07;100.00;99595.16;105261;1270;61265;-73
2022/03/08 05:42:46;;;;;;;81.90;55.50;;;;;;;-2.02;100.00;99597.40;105230;1270;61181;-74
2022/03/08 05:45:13;;;;;;;81.40;53.40;;;;;;;-1.99;100.00;99602.41;105251;1270;61237;-74
2022/03/08 05:47:41;;;;;;;85.40;56.90;;;;;;;-1.98;100.00;99606.23;105267;1270;73532;-73
2022/03/08 05:50:09;;;;;;;76.90;53.70;;;;;;;-1.99;100.00;99607.48;105226;1270;61304;-73
2022/03/08 05:52:36;;;;;;;79.20;54.00;;;;;;;-1.94;100.00;99610.92;105268;1270;61268;-74
2022/03/08 05:55:06;;;;;;;78.40;49.10;;;;;;;-1.86;100.00;99614.53;105242;1270;75196;-74
2022/03/08 05:57:32;;;;;;;76.20;52.00;;;;;;;-1.75;100.00;99615.84;105243;1270;69097;-74
2022/03/08 05:59:59;;;;;;;78.50;56.70;;;;;;;-1.68;100.00;99618.40;105253;1270;74238;-73
2022/03/08 06:02:25;;;;;;;76.80;54.00;;;;;;;-1.62;100.00;99621.33;105228;1270;61270;-73
2022/03/08 06:04:52;;;;;;;77.70;53.60;;;;;;;-1.59;100.00;99622.35;105095;1270;60123;-73
2022/03/08 06:07:21;;;;;;;76.00;50.90;;;;;;;-1.54;100.00;99620.39;105301;1270;61173;-73
2022/03/08 06:09:47;;;;;;;80.20;49.00;;;;;;;-1.52;100.00;99620.02;105064;1270;69186;-74
2022/03/08 06:12:14;;;;;;;71.70;47.50;;;;;;;-1.52;100.00;99617.93;105290;1270;74593;-74
2022/03/08 06:14:41;;;;;;;63.90;41.70;;;;;;;-1.47;100.00;99617.03;105251;1270;61296;-74
2022/03/08 06:17:08;;;;;;;51.20;33.00;;;;;;;-1.44;100.00;99615.45;105278;1270;62140;-73
2022/03/08 06:19:36;;;;;;;50.50;32.50;;;;;;;-1.42;100.00;99612.62;105266;1270;75158;-74
2022/03/08 06:22:03;;;;;;;56.50;34.90;;;;;;;-1.43;100.00;99615.77;105306;1270;69281;-73
2022/03/08 06:24:30;;;;;;;55.90;37.50;;;;;;;-1.39;100.00;99617.65;105270;1270;72928;-74
2022/03/08 06:26:57;;;;;;;63.90;41.30;;;;;;;-1.35;100.00;99622.85;105301;1269;61422;-74
2022/03/08 06:29:24;;;;;;;55.90;37.80;;;;;;;-1.29;100.00;99617.05;105317;1270;61317;-72
2022/03/08 06:31:50;;;;;;;49.90;32.70;;;;;;;-1.25;100.00;99617.01;105299;1270;75171;-73
2022/03/08 06:34:17;;;;;;;49.50;30.40;;;;;;;-1.21;100.00;99623.76;105267;1269;61294;-75
2022/03/08 06:36:43;;;;;;;48.20;33.00;;;;;;;-1.17;100.00;99625.64;105261;1270;61852;-73
2022/03/08 06:39:10;;;;;;;46.00;29.30;;;;;;;-1.16;100.00;99624.59;105238;1270;61263;-72
2022/03/08 06:41:37;;;;;;;51.70;34.50;;;;;;;-1.17;100.00;99630.01;105059;1270;61231;-73
2022/03/08 06:44:04;;;;;;;50.10;33.50;;;;;;;-1.17;100.00;99634.88;105299;1270;76207;-73
2022/03/08 06:46:31;;;;;;;56.90;37.80;;;;;;;-1.17;100.00;99636.79;105273;1270;70396;-73
2022/03/08 06:48:57;;;;;;;55.70;36.40;;;;;;;-1.10;100.00;99639.52;105248;1270;74946;-73
2022/03/08 06:51:24;;;;;;;53.50;34.50;;;;;;;-0.99;100.00;99642.73;105285;1270;61292;-73
2022/03/08 06:53:51;;;;;;;50.30;35.50;;;;;;;-0.88;100.00;99644.90;105322;1270;61175;-75
2022/03/08 06:56:18;;;;;;;50.90;31.70;;;;;;;-0.79;100.00;99641.14;105295;1270;76194;-74
2022/03/08 06:58:44;;;;;;;49.70;33.50;;;;;;;-0.67;100.00;99641.02;105303;1270;69379;-73
2022/03/08 07:01:11;;;;;;;42.50;28.50;;;;;;;-0.58;100.00;99643.86;105223;1270;61280;-73
2022/03/08 07:03:37;;;;;;;48.30;32.40;;;;;;;-0.55;100.00;99650.48;105322;1270;61382;-73
2022/03/08 07:06:05;;;;;;;54.80;36.10;;;;;;;-0.50;100.00;99649.90;105352;1270;61811;-74
2022/03/08 07:08:31;;;;;;;62.10;41.00;;;;;;;-0.46;100.00;99649.33;105284;1270;74113;-73
2022/03/08 07:10:58;;;;;;;79.50;52.10;;;;;;;-0.38;100.00;99645.73;105283;1270;70360;-73
2022/03/08 07:13:25;;;;;;;68.90;42.90;;;;;;;-0.29;100.00;99645.45;105007;1271;61504;-73
2022/03/08 07:15:51;;;;;;;53.60;36.40;;;;;;;-0.22;100.00;99651.64;105332;1269;61382;-73
2022/03/08 07:18:17;;;;;;;49.80;35.70;;;;;;;-0.15;100.00;99648.76;105331;1270;61254;-73
2022/03/08 07:20:44;;;;;;;53.50;36.50;;;;;;;-0.01;100.00;99644.56;104992;1270;61212;-72
2022/03/08 07:23:10;;;;;;;50.60;33.60;;;;;;;0.13;100.00;99644.37;105375;1270;61351;-73
2022/03/08 07:25:37;;;;;;;53.90;34.50;;;;;;;0.28;100.00;99639.44;105032;1271;61543;-74
2022/03/08 07:28:04;;;;;;;55.50;38.50;;;;;;;0.32;100.00;99642.69;105330;1270;61342;-73
2022/03/08 07:30:31;;;;;;;60.90;39.90;;;;;;;0.40;100.00;99643.61;105209;1271;62170;-74
2022/03/08 07:32:58;;;;;;;56.00;38.50;;;;;;;0.50;100.00;99636.46;105118;1270;75332;-73
2022/03/08 07:35:25;;;;;;;56.40;36.20;;;;;;;0.62;100.00;99633.83;105389;1270;61307;-73
2022/03/08 07:37:52;;;;;;;58.30;38.70;;;;;;;0.69;100.00;99634.42;105398;1270;73218;-73
2022/03/08 07:40:18;;;;;;;58.90;38.10;;;;;;;0.72;100.00;99635.43;105392;1270;61281;-73
2022/03/08 07:42:45;;;;;;;54.90;37.10;;;;;;;0.81;100.00;99633.16;105384;1270;61170;-74
2022/03/08 07:45:12;;;;;;;60.40;40.00;;;;;;;0.83;100.00;99635.57;105527;1270;75211;-75
2022/03/08 07:47:39;;;;;;;54.50;38.30;;;;;;;0.83;100.00;99639.08;105726;1270;69344;-74
2022/03/08 07:50:06;;;;;;;55.60;39.70;;;;;;;0.95;100.00;99643.26;105720;1270;71324;-74
2022/03/08 07:52:33;;;;;;;53.70;37.50;;;;;;;1.09;100.00;99633.37;105641;1271;61307;-73
2022/03/08 07:54:59;;;;;;;50.80;34.80;;;;;;;1.22;100.00;99621.77;106076;1270;61162;-74
2022/03/08 07:57:26;;;;;;;50.90;34.50;;;;;;;1.33;100.00;99623.48;105821;1271;75098;-83
2022/03/08 07:59:53;;;;;;;50.80;33.50;;;;;;;1.42;100.00;99626.61;106557;1269;67549;-75
2022/03/08 08:02:20;;;;;;;49.50;31.80;;;;;;;1.42;100.00;99628.38;108463;1269;74467;-74
2022/03/08 08:04:46;;;;;;;53.00;32.80;;;;;;;1.43;100.00;99634.48;108503;1270;61438;-76
2022/03/08 08:07:13;;;;;;;51.90;33.20;;;;;;;1.44;100.00;99632.55;108101;1270;61108;-75
2022/03/08 08:09:39;;;;;;;51.10;34.70;;;;;;;1.50;100.00;99637.67;106574;1270;76576;-75
2022/03/08 08:12:07;;;;;;;57.30;36.00;;;;;;;1.47;100.00;99638.61;107098;1270;68668;-76
2022/03/08 08:14:34;;;;;;;54.10;36.00;;;;;;;1.43;100.00;99640.09;107444;1270;73320;-74
2022/03/08 08:17:01;;;;;;;53.90;34.30;;;;;;;1.44;100.00;99642.70;106694;1270;61287;-77
2022/03/08 08:19:27;;;;;;;52.00;35.60;;;;;;;1.52;100.00;99642.36;105389;1270;61285;-75
2022/03/08 08:21:54;;;;;;;53.20;34.80;;;;;;;1.62;100.00;99642.52;105271;1270;72308;-76
2022/03/08 08:24:20;;;;;;;47.20;31.50;;;;;;;1.68;100.00;99637.85;105287;1270;68912;-76
2022/03/08 08:26:47;;;;;;;49.30;33.40;;;;;;;1.75;100.00;99637.52;105248;1270;73284;-76
2022/03/08 08:29:13;;;;;;;52.50;34.00;;;;;;;1.87;100.00;99633.60;105315;1270;61251;-75
2022/03/08 08:31:40;;;;;;;45.50;31.80;;;;;;;2.07;100.00;99633.17;105302;1270;62209;-75
2022/03/08 08:34:07;;;;;;;48.10;30.70;;;;;;;2.23;100.00;99636.11;105284;1271;75329;-76
2022/03/08 08:36:34;;;;;;;47.90;32.40;;;;;;;2.27;100.00;99637.26;105347;1270;70122;-75
2022/03/08 08:39:00;;;;;;;50.20;33.80;;;;;;;2.24;100.00;99638.91;105290;1270;74373;-75
2022/03/08 08:41:27;;;;;;;50.20;33.30;;;;;;;2.29;100.00;99641.42;105282;1270;61287;-76
2022/03/08 08:43:54;;;;;;;50.70;33.10;;;;;;;2.30;100.00;99650.87;105073;1271;61366;-76
2022/03/08 08:46:20;;;;;;;43.50;29.10;;;;;;;2.35;100.00;99652.51;105286;1270;61260;-76
2022/03/08 08:48:47;;;;;;;42.00;29.20;;;;;;;2.35;100.00;99656.36;105306;1271;69407;-75
2022/03/08 08:51:13;;;;;;;43.10;29.80;;;;;;;2.41;100.00;99654.65;105293;1270;61284;-77
2022/03/08 08:53:40;;;;;;;42.80;31.40;;;;;;;2.49;100.00;99650.77;105180;1271;61284;-76
2022/03/08 08:56:06;;;;;;;38.70;29.20;;;;;;;2.57;99.88;99649.36;105301;1270;61254;-76
2022/03/08 08:58:33;;;;;;;41.20;29.10;;;;;;;2.58;99.00;99650.05;105297;1270;75254;-77
2022/03/08 09:01:00;;;;;;;45.10;30.00;;;;;;;2.59;98.88;99652.66;105326;1270;70123;-76
2022/03/08 09:03:26;;;;;;;42.50;28.30;;;;;;;2.62;98.56;99653.80;105007;1271;71282;-77
2022/03/08 09:05:53;;;;;;;39.70;26.30;;;;;;;2.66;98.29;99653.55;105259;1270;61391;-76
2022/03/08 09:08:24;;;;;;;40.70;28.00;;;;;;;2.68;97.59;99653.86;105126;1270;61233;-77
2022/03/08 09:10:52;;;;;;;36.60;27.10;;;;;;;2.78;98.40;99657.45;105271;1270;75134;-76
2022/03/08 09:13:20;;;;;;;36.90;26.60;;;;;;;2.90;97.99;99659.98;105475;1271;69103;-74
2022/03/08 09:15:46;;;;;;;38.50;26.80;;;;;;;3.00;97.14;99657.77;105364;1270;73134;-75
2022/03/08 09:18:13;;;;;;;34.70;25.60;;;;;;;2.98;96.16;99656.26;105124;1271;61418;-76
2022/03/08 09:20:40;;;;;;;33.20;24.30;;;;;;;3.04;96.99;99656.98;105294;1270;61321;-76
2022/03/08 09:23:07;;;;;;;32.20;22.40;;;;;;;3.13;95.46;99660.77;105322;1270;75692;-76
2022/03/08 09:25:33;;;;;;;26.10;17.70;;;;;;;3.11;95.02;99658.55;105280;1270;69095;-76
2022/03/08 09:28:02;;;;;;;27.30;19.50;;;;;;;3.13;94.70;99666.40;105295;1270;74076;-76
2022/03/08 09:30:30;;;;;;;28.90;21.20;;;;;;;3.18;94.71;99671.02;105289;1270;61523;-76
2022/03/08 09:32:58;;;;;;;25.30;18.00;;;;;;;3.23;94.05;99675.45;105346;1270;61273;-77
2022/03/08 09:35:26;;;;;;;29.60;20.60;;;;;;;3.22;93.44;99678.11;105242;1271;75253;-76
2022/03/08 09:37:53;;;;;;;33.40;21.70;;;;;;;3.18;93.66;99679.98;105264;1270;70069;-77
2022/03/08 09:40:21;;;;;;;32.70;22.80;;;;;;;3.16;93.84;99679.15;105282;1271;72847;-78
2022/03/08 09:42:49;;;;;;;34.10;22.70;;;;;;;3.14;93.26;99679.55;105279;1270;61395;-77
2022/03/08 09:45:17;;;;;;;30.80;17.70;;;;;;;3.11;93.01;99679.98;105330;1270;61174;-78
2022/03/08 09:47:44;;;;;;;20.30;13.60;;;;;;;3.11;91.77;99678.05;105471;1270;74822;-77
2022/03/08 09:50:13;;;;;;;18.30;13.10;;;;;;;3.12;91.18;99674.51;105294;1270;67892;-77
2022/03/08 09:52:41;;;;;;;16.30;12.90;;;;;;;3.14;90.47;99676.55;105734;1270;73195;-76
2022/03/08 09:55:13;;;;;;;20.30;13.60;;;;;;;3.12;90.23;99672.39;105447;1270;61301;-77
2022/03/08 09:57:40;;;;;;;21.40;14.20;;;;;;;3.14;90.30;99671.28;105300;1270;61291;-77
2022/03/08 10:00:09;;;;;;;25.80;15.40;;;;;;;3.17;90.40;99670.33;105319;1271;75083;-77
2022/03/08 10:02:45;;;;;;;21.80;14.50;;;;;;;3.20;90.19;99677.48;105553;1271;70166;-77
2022/03/08 10:05:12;;;;;;;26.00;16.30;;;;;;;3.14;89.50;99673.59;105139;1271;70711;-77
2022/03/08 10:07:39;;;;;;;27.20;16.90;;;;;;;3.13;90.48;99669.40;105269;1270;61265;-74
2022/03/08 10:10:06;;;;;;;25.60;17.90;;;;;;;3.13;89.23;99673.08;105103;1271;61266;-77
2022/03/08 10:12:32;;;;;;;28.10;18.80;;;;;;;3.07;88.81;99673.41;105287;1270;75265;-78
2022/03/08 10:15:16;;;;;;;24.70;20.10;;;;;;;2.97;88.66;99674.35;105273;1271;69278;-77
2022/03/08 10:17:42;;;;;;;29.50;18.90;;;;;;;2.85;89.20;99674.65;105269;1271;72228;-76
2022/03/08 10:20:12;;;;;;;26.10;17.10;;;;;;;2.85;89.32;99674.66;105276;1270;61348;-75
2022/03/08 10:22:40;;;;;;;22.70;15.90;;;;;;;2.93;89.42;99674.29;105534;1270;61341;-76
2022/03/08 10:25:25;;;;;;;26.00;17.50;;;;;;;3.07;89.58;99673.23;105255;1270;75747;-76
2022/03/08 10:27:54;;;;;;;26.40;17.90;;;;;;;3.33;89.79;99672.91;105265;1270;69486;-77
2022/03/08 10:30:43;;;;;;;24.60;16.80;;;;;;;3.59;89.64;99673.62;105222;1269;74624;-78
2022/03/08 10:33:11;;;;;;;24.60;18.30;;;;;;;3.89;88.87;99672.05;104608;1278;61471;-78
2022/03/08 10:35:40;;;;;;;27.10;18.50;;;;;;;4.01;86.44;99666.95;104524;1277;61350;-77
2022/03/08 10:38:12;;;;;;;24.20;17.50;;;;;;;3.97;86.13;99664.60;104725;1277;75176;-77
2022/03/08 10:40:41;;;;;;;23.80;15.70;;;;;;;4.00;86.47;99669.29;104610;1278;69190;-77
2022/03/08 10:43:13;;;;;;;21.30;16.80;;;;;;;4.06;85.88;99669.48;104659;1278;73535;-77
2022/03/08 10:45:49;;;;;;;22.40;15.90;;;;;;;4.12;86.27;99668.04;104751;1277;61384;-77
2022/03/08 10:48:18;;;;;;;19.90;14.60;;;;;;;4.16;84.99;99667.05;104848;1277;61797;-78
2022/03/08 10:50:49;;;;;;;26.00;18.40;;;;;;;4.18;85.20;99666.10;104730;1277;75425;-77
2022/03/08 10:53:16;;;;;;;23.20;17.00;;;;;;;4.16;85.45;99662.29;104846;1277;70194;-79
2022/03/08 10:55:46;;;;;;;26.10;18.60;;;;;;;4.14;84.95;99660.25;104599;1281;73936;-80
2022/03/08 10:58:14;;;;;;;22.50;15.90;;;;;;;4.08;85.07;99657.81;104597;1277;61216;-79
2022/03/08 11:00:44;;;;;;;26.60;17.20;;;;;;;4.08;84.97;99656.21;104774;1277;61327;-78
2022/03/08 11:03:13;;;;;;;22.20;14.10;;;;;;;4.12;83.93;99655.76;104643;1277;75182;-78
2022/03/08 11:05:48;;;;;;;17.10;11.70;;;;;;;4.07;83.19;99650.43;104592;1277;69371;-78